ususleCam  ususleCam


Besuchen Sie unsere anderen Wetter Stationen:

Template documentation
and downloads

Neue Seite im Aufbau



METAR-Meldungen aus der Umgebung

   
LSZH - Zurich-Kloten (a, Switzerland
Entfernung von der Station bis: NW 47 km
Aktualisierung: 24-06-2021 13:20
leicht bewölkt  
leicht bewölkt  
   Wind: variiert 4 km/h
Wind: variiert 4 km/h
Temperatur: 20°C
Taupunkt: 13°C
Luftfeuchte: 64%
Luftdruck: 1019 hPa
Bewölkung: leicht bewölkt
Sichtbarkeit: More than 10 km
Bewölkung: leicht bewölkt 2600 ft
LSZH 241120Z VRB02KT 9999 FEW026 20/13 Q1019 NOSIG
LSZL - Locarno, Switzerland
Entfernung von der Station bis: S 119 km
Aktualisierung: 24-06-2021 13:20
Teilweise bewölkt  
Teilweise bewölkt  
   Wind: WSW 6 km/h
Wind: WSW 6 km/h
Temperatur: 25°C
Taupunkt: 17°C
Luftfeuchte: 61%
Luftdruck: 1016 hPa
Bewölkung: Teilweise bewölkt
Sichtbarkeit: More than 10 km
Bewölkung: Teilweise bewölkt 8000 ft
LSZL 241120Z 25003KT 200V320 9999 SCT080 25/17 Q1016 RMK BLU+
LSZS - Samedan, Switzerland
Entfernung von der Station bis: SO 101 km
Aktualisierung: 24-06-2021 13:20
Stark bewölkt  
Stark bewölkt  
   Wind: SW 26 km/h
Wind: SW 26 km/h
Temperatur: 19°C
Taupunkt: 4°C
Luftfeuchte: 37%
Luftdruck: 1021 hPa
Bewölkung: Stark bewölkt
Sichtbarkeit: More than 10 km
Bewölkung: Stark bewölkt 8000 ft
LSZS 241120Z 23014KT 9999 BKN080 19/04 Q1021 RMK L TL170
LSME - Emmen, Switzerland
Entfernung von der Station bis: WSW 58 km
Aktualisierung: 24-06-2021 13:20
Teilweise bewölkt  
Teilweise bewölkt  
   Wind: NW 7 km/h
Wind: NW 7 km/h
Temperatur: 21°C
Taupunkt: 11°C
Luftfeuchte: 53%
Luftdruck: 1018 hPa
Bewölkung: Teilweise bewölkt
Sichtbarkeit: More than 10 km
Bewölkung: Teilweise bewölkt 8800 ft
LSME 241120Z 32004KT 260V010 9999 SCT088 21/11 Q1018 RMK BLU+
LSZB - Bern/Belp, Switzerland
Entfernung von der Station bis: WSW 122 km
Aktualisierung: 24-06-2021 13:20
Stark bewölkt  
Stark bewölkt  
   Wind: variiert 6 km/h
Wind: variiert 6 km/h
Temperatur: 20°C
Taupunkt: 15°C
Luftfeuchte: 73%
Luftdruck: 1019 hPa
Bewölkung: Stark bewölkt
Sichtbarkeit: More than 10 km
Bewölkung: Teilweise bewölkt 3200 ft,
Stark bewölkt 12000 ft
LSZB 241120Z VRB03KT 9999 SCT032 BKN120 20/15 Q1019 NOSIG
LFSB - Bale/Mulhouse, France
Entfernung von der Station bis: WNW 121 km
Aktualisierung: 24-06-2021 13:30
Stark bewölkt  
Stark bewölkt  
   Wind: variiert 6 km/h
Wind: variiert 6 km/h
Temperatur: 22°C
Taupunkt: 16°C
Luftfeuchte: 69%
Luftdruck: 1018 hPa
Bewölkung: Stark bewölkt
Sichtbarkeit: More than 10 km
Bewölkung: leicht bewölkt 5000 ft,
leicht bewölkt 5000 ft,
Stark bewölkt 23000 ft
LFSB 241130Z VRB03KT 9999 FEW050CB FEW050 BKN230 22/16 Q1018 TEMPO 30015G25KT 2000 TSRA SCT025CB

Script entwickelt von  Saratoga-weather.org Angepasst für das Template von  Weerstation Leuven

Von uns verwendete Ausrüstung:

Wetterstation
Davis Vue

Wetterprogramm
Meteobridge

Davis Vue

Meteobridge